createdAt,value
2019-05-07T00:00:59.692Z,0.00
2019-05-07T00:01:59.652Z,0.00
2019-05-07T00:02:59.656Z,0.00
2019-05-07T00:04:01.892Z,0.00
2019-05-07T00:04:59.676Z,0.00
2019-05-07T00:05:59.610Z,0.00
2019-05-07T00:06:59.600Z,0.00
2019-05-07T00:07:59.603Z,0.00
2019-05-07T00:08:59.582Z,0.00
2019-05-07T00:09:59.602Z,0.00
2019-05-07T00:10:59.560Z,0.00
2019-05-07T00:11:59.548Z,0.00
2019-05-07T00:12:59.530Z,0.00
2019-05-07T00:13:59.529Z,0.00
2019-05-07T00:15:02.303Z,0.00
2019-05-07T00:16:02.498Z,0.00
2019-05-07T00:16:59.512Z,0.00
2019-05-07T00:17:59.494Z,0.00
2019-05-07T00:18:59.468Z,0.00
2019-05-07T00:19:59.459Z,0.00
2019-05-07T00:20:59.490Z,0.00
2019-05-07T00:21:59.444Z,0.00
2019-05-07T00:22:59.444Z,0.00
2019-05-07T00:23:59.418Z,0.00
2019-05-07T00:24:59.426Z,0.00
2019-05-07T00:25:59.402Z,0.00
2019-05-07T00:26:59.416Z,0.00
2019-05-07T00:27:59.378Z,0.00
2019-05-07T00:28:59.372Z,0.00
2019-05-07T00:29:59.354Z,0.00
2019-05-07T00:30:59.353Z,0.00
2019-05-07T00:31:59.346Z,0.00
2019-05-07T00:32:59.332Z,0.00
2019-05-07T00:33:59.332Z,0.00
2019-05-07T00:34:59.310Z,0.00
2019-05-07T00:35:59.294Z,0.00
2019-05-07T00:36:59.292Z,0.00
2019-05-07T00:37:59.308Z,0.00
2019-05-07T00:38:59.249Z,0.00
2019-05-07T00:39:59.242Z,0.00
2019-05-07T00:40:59.244Z,0.00
2019-05-07T00:41:59.222Z,0.00
2019-05-07T00:42:59.240Z,0.00
2019-05-07T00:43:59.206Z,0.00
2019-05-07T00:45:13.157Z,0.00
2019-05-07T00:46:02.150Z,0.00
2019-05-07T00:46:59.179Z,0.00
2019-05-07T00:47:59.178Z,0.00
2019-05-07T00:48:59.141Z,0.00
2019-05-07T00:49:59.136Z,0.00
2019-05-07T00:50:59.126Z,0.00
2019-05-07T00:51:59.120Z,0.00
2019-05-07T00:52:59.122Z,0.00
2019-05-07T00:53:59.105Z,0.00
2019-05-07T00:54:59.076Z,0.00
2019-05-07T00:55:59.074Z,0.00
2019-05-07T00:56:59.066Z,0.00
2019-05-07T00:57:59.110Z,0.00
2019-05-07T00:58:59.056Z,0.00
2019-05-07T00:59:59.026Z,0.00
2019-05-07T01:00:59.017Z,0.00
2019-05-07T01:01:59.013Z,0.00
2019-05-07T01:02:58.998Z,0.00
2019-05-07T01:03:59.010Z,0.00
2019-05-07T01:04:58.998Z,0.00
2019-05-07T01:05:58.970Z,0.00
2019-05-07T01:06:58.963Z,0.00
2019-05-07T01:07:58.950Z,0.00
2019-05-07T01:08:58.968Z,0.00
2019-05-07T01:09:58.932Z,0.00
2019-05-07T01:10:58.915Z,0.00
2019-05-07T01:11:58.912Z,0.00
2019-05-07T01:12:59.379Z,0.00
2019-05-07T01:13:58.894Z,0.00
2019-05-07T01:14:58.900Z,0.00
2019-05-07T01:15:58.880Z,0.00
2019-05-07T01:16:58.858Z,0.00
2019-05-07T01:17:58.844Z,0.00
2019-05-07T01:18:58.847Z,0.00
2019-05-07T01:19:58.831Z,0.00
2019-05-07T01:20:58.835Z,0.00
2019-05-07T01:21:58.812Z,0.00
2019-05-07T01:22:58.796Z,0.00
2019-05-07T01:23:58.783Z,0.00
2019-05-07T01:24:58.764Z,0.00
2019-05-07T01:25:58.757Z,0.00
2019-05-07T01:26:58.773Z,0.00
2019-05-07T01:27:58.745Z,0.00
2019-05-07T01:28:58.725Z,0.00
2019-05-07T01:29:58.715Z,0.00
2019-05-07T01:30:58.716Z,0.00
2019-05-07T01:31:58.701Z,0.00
2019-05-07T01:32:58.711Z,0.00
2019-05-07T01:33:58.689Z,0.00
2019-05-07T01:34:58.663Z,0.00
2019-05-07T01:35:58.659Z,0.00
2019-05-07T01:36:58.653Z,0.00
2019-05-07T01:37:58.631Z,0.00
2019-05-07T01:38:58.649Z,0.00
2019-05-07T01:39:58.628Z,0.00
2019-05-07T01:40:58.600Z,0.00
2019-05-07T01:41:58.605Z,0.00
2019-05-07T01:42:58.585Z,0.00
2019-05-07T01:43:58.576Z,0.00
2019-05-07T01:44:58.587Z,0.00
2019-05-07T01:45:58.561Z,0.00
2019-05-07T01:46:58.535Z,0.00
2019-05-07T01:47:58.550Z,0.00
2019-05-07T01:48:58.525Z,0.00
2019-05-07T01:49:58.531Z,0.00
2019-05-07T01:50:58.543Z,0.00
2019-05-07T01:51:58.499Z,0.00
2019-05-07T01:52:58.469Z,0.00
2019-05-07T01:53:58.471Z,0.00
2019-05-07T01:54:58.465Z,0.00
2019-05-07T01:55:58.445Z,0.00
2019-05-07T01:56:58.475Z,0.00
2019-05-07T01:57:58.446Z,0.00
2019-05-07T01:58:58.422Z,0.00
2019-05-07T01:59:58.401Z,0.00
2019-05-07T02:00:58.381Z,0.00
2019-05-07T02:01:58.407Z,0.00
2019-05-07T02:02:58.393Z,0.00
2019-05-07T02:03:58.361Z,0.00
2019-05-07T02:04:58.351Z,0.00
2019-05-07T02:05:58.343Z,0.00
2019-05-07T02:06:58.321Z,0.00
2019-05-07T02:07:58.346Z,0.00
2019-05-07T02:08:58.307Z,0.00
2019-05-07T02:09:58.321Z,0.00
2019-05-07T02:10:58.287Z,0.00
2019-05-07T02:11:58.267Z,0.00
2019-05-07T02:12:58.283Z,0.00
2019-05-07T02:13:58.257Z,0.00
2019-05-07T02:14:58.247Z,0.00
2019-05-07T02:16:01.126Z,0.00
2019-05-07T02:16:59.215Z,0.00
2019-05-07T02:17:58.245Z,0.00
2019-05-07T02:18:58.195Z,0.00
2019-05-07T02:19:58.192Z,0.00
2019-05-07T02:20:58.173Z,0.00
2019-05-07T02:21:58.179Z,0.00
2019-05-07T02:22:58.163Z,0.00
2019-05-07T02:23:58.175Z,0.00
2019-05-07T02:24:58.133Z,0.00
2019-05-07T02:25:58.179Z,0.00
2019-05-07T02:26:58.119Z,0.00
2019-05-07T02:27:58.118Z,0.00
2019-05-07T02:28:58.139Z,0.00
2019-05-07T02:29:58.101Z,0.00
2019-05-07T02:30:58.080Z,0.00
2019-05-07T02:31:58.068Z,0.00
2019-05-07T02:32:58.052Z,0.00
2019-05-07T02:33:58.057Z,0.00
2019-05-07T02:34:58.049Z,0.00
2019-05-07T02:35:58.035Z,0.00
2019-05-07T02:36:58.012Z,0.00
2019-05-07T02:37:58.019Z,0.00
2019-05-07T02:38:58.010Z,0.00
2019-05-07T02:39:58.028Z,0.00
2019-05-07T02:40:57.979Z,0.00
2019-05-07T02:41:57.962Z,0.00
2019-05-07T02:42:57.958Z,0.00
2019-05-07T02:44:00.269Z,0.00
2019-05-07T02:44:58.950Z,0.00
2019-05-07T02:46:15.985Z,0.00
2019-05-07T02:46:58.905Z,0.00
2019-05-07T02:47:57.909Z,0.00
2019-05-07T02:48:57.890Z,0.00
2019-05-07T02:49:57.883Z,0.00
2019-05-07T02:50:57.902Z,0.00
2019-05-07T02:51:57.851Z,0.00
2019-05-07T02:52:57.843Z,0.00
2019-05-07T02:53:57.839Z,0.00
2019-05-07T02:54:57.829Z,0.00
2019-05-07T02:55:57.818Z,0.00
2019-05-07T02:56:57.835Z,0.00
2019-05-07T02:57:57.800Z,0.00
2019-05-07T02:58:57.779Z,0.00
2019-05-07T02:59:57.769Z,0.00
2019-05-07T03:00:57.749Z,0.00
2019-05-07T03:01:57.757Z,0.00
2019-05-07T03:02:57.754Z,0.00
2019-05-07T03:03:57.729Z,0.00
2019-05-07T03:04:57.713Z,0.00
2019-05-07T03:05:57.716Z,0.00
2019-05-07T03:06:57.725Z,0.00
2019-05-07T03:07:57.692Z,0.00
2019-05-07T03:08:57.683Z,0.00
2019-05-07T03:09:57.680Z,0.00
2019-05-07T03:10:57.655Z,0.00
2019-05-07T03:11:57.645Z,0.00
2019-05-07T03:12:57.654Z,0.00
2019-05-07T03:13:57.632Z,0.00
2019-05-07T03:14:57.603Z,0.00
2019-05-07T03:15:57.622Z,0.00
2019-05-07T03:16:57.591Z,0.00
2019-05-07T03:17:57.643Z,0.00
2019-05-07T03:18:57.563Z,0.00
2019-05-07T03:19:57.550Z,0.00
2019-05-07T03:20:57.557Z,0.00
2019-05-07T03:21:57.547Z,0.00
2019-05-07T03:22:57.531Z,0.00
2019-05-07T03:23:57.522Z,0.00
2019-05-07T03:24:57.504Z,0.00
2019-05-07T03:25:57.504Z,0.00
2019-05-07T03:26:57.498Z,0.00
2019-05-07T03:27:57.487Z,0.00
2019-05-07T03:28:57.525Z,0.00
2019-05-07T03:29:57.453Z,0.00
2019-05-07T03:30:57.524Z,0.00
2019-05-07T03:31:57.430Z,0.00
2019-05-07T03:32:57.417Z,0.00
2019-05-07T03:33:57.413Z,0.00
2019-05-07T03:34:58.320Z,0.00
2019-05-07T03:35:57.506Z,0.00
2019-05-07T03:36:57.615Z,0.00
2019-05-07T03:37:57.358Z,0.00
2019-05-07T03:38:57.359Z,0.00
2019-05-07T03:39:57.364Z,0.00
2019-05-07T03:40:57.323Z,0.00
2019-05-07T03:41:57.324Z,0.00
2019-05-07T03:43:01.490Z,0.00
2019-05-07T03:43:58.291Z,0.00
2019-05-07T03:44:57.288Z,0.00
2019-05-07T03:45:57.300Z,0.00
2019-05-07T03:47:02.328Z,0.00
2019-05-07T03:47:58.257Z,0.00
2019-05-07T03:48:57.249Z,0.00
2019-05-07T03:49:57.236Z,0.00
2019-05-07T03:51:06.000Z,0.00
2019-05-07T03:51:57.200Z,0.00
2019-05-07T03:52:57.195Z,0.00
2019-05-07T03:53:57.185Z,0.00
2019-05-07T03:54:57.172Z,5.62
2019-05-07T03:55:57.211Z,5.62
2019-05-07T03:57:02.433Z,5.62
2019-05-07T03:57:58.133Z,5.62
2019-05-07T03:58:57.123Z,5.62
2019-05-07T03:59:57.109Z,5.62
2019-05-07T04:00:57.102Z,5.62
2019-05-07T04:01:57.103Z,5.62
2019-05-07T04:02:57.084Z,5.62
2019-05-07T04:03:57.067Z,5.62
2019-05-07T04:04:57.060Z,5.62
2019-05-07T04:05:57.040Z,5.62
2019-05-07T04:06:57.057Z,5.62
2019-05-07T04:07:57.021Z,5.62
2019-05-07T04:08:57.019Z,5.62
2019-05-07T04:09:57.018Z,5.62
2019-05-07T04:10:56.996Z,5.62
2019-05-07T04:11:57.029Z,11.25
2019-05-07T04:12:57.007Z,11.25
2019-05-07T04:13:56.961Z,11.25
2019-05-07T04:14:56.965Z,11.25
2019-05-07T04:15:56.951Z,11.25
2019-05-07T04:17:13.325Z,11.25
2019-05-07T04:17:57.946Z,11.25
2019-05-07T04:18:56.917Z,11.25
2019-05-07T04:19:56.895Z,11.25
2019-05-07T04:20:56.896Z,11.25
2019-05-07T04:21:56.878Z,11.25
2019-05-07T04:22:56.872Z,11.25
2019-05-07T04:23:56.887Z,11.25
2019-05-07T04:24:56.872Z,11.25
2019-05-07T04:25:56.839Z,11.25
2019-05-07T04:26:56.822Z,11.25
2019-05-07T04:27:56.821Z,16.88
2019-05-07T04:28:56.857Z,16.88
2019-05-07T04:29:56.787Z,16.88
2019-05-07T04:30:56.783Z,16.88
2019-05-07T04:31:56.757Z,16.88
2019-05-07T04:32:56.768Z,16.88
2019-05-07T04:33:56.827Z,16.88
2019-05-07T04:34:56.754Z,16.88
2019-05-07T04:35:56.727Z,16.88
2019-05-07T04:36:56.727Z,16.88
2019-05-07T04:37:56.706Z,16.88
2019-05-07T04:38:56.721Z,16.88
2019-05-07T04:39:56.704Z,16.88
2019-05-07T04:40:56.674Z,16.88
2019-05-07T04:41:56.673Z,16.88
2019-05-07T04:42:56.645Z,16.88
2019-05-07T04:43:56.635Z,22.50
2019-05-07T04:44:56.655Z,22.50
2019-05-07T04:45:56.612Z,22.50
2019-05-07T04:46:56.606Z,22.50
2019-05-07T04:47:56.602Z,22.50
2019-05-07T04:48:56.582Z,22.50
2019-05-07T04:49:56.623Z,22.50
2019-05-07T04:50:56.565Z,22.50
2019-05-07T04:51:56.556Z,22.50
2019-05-07T04:52:56.551Z,22.50
2019-05-07T04:53:56.529Z,22.50
2019-05-07T04:54:56.532Z,22.50
2019-05-07T04:55:56.549Z,22.50
2019-05-07T04:56:56.511Z,28.12
2019-05-07T04:57:56.500Z,28.12
2019-05-07T04:58:56.491Z,28.12
2019-05-07T04:59:56.502Z,28.12
2019-05-07T05:00:56.499Z,28.12
2019-05-07T05:01:56.485Z,28.12
2019-05-07T05:02:56.457Z,33.75
2019-05-07T05:03:56.450Z,33.75
2019-05-07T05:05:04.573Z,45.00
2019-05-07T05:05:56.448Z,56.25
2019-05-07T05:06:56.435Z,61.88
2019-05-07T05:07:56.430Z,67.50
2019-05-07T05:08:56.575Z,61.88
2019-05-07T05:09:56.363Z,67.50
2019-05-07T05:10:56.362Z,67.50
2019-05-07T05:11:56.344Z,67.50
2019-05-07T05:12:56.372Z,73.12
2019-05-07T05:13:56.341Z,73.12
2019-05-07T05:14:56.321Z,73.12
2019-05-07T05:15:56.311Z,78.75
2019-05-07T05:16:56.298Z,78.75
2019-05-07T05:17:56.333Z,78.75
2019-05-07T05:18:56.278Z,84.38
2019-05-07T05:19:56.259Z,84.38
2019-05-07T05:20:56.256Z,90.00
2019-05-07T05:21:56.258Z,84.38
2019-05-07T05:22:56.238Z,78.75
2019-05-07T05:23:56.259Z,73.12
2019-05-07T05:24:56.347Z,73.12
2019-05-07T05:25:56.206Z,73.12
2019-05-07T05:26:56.176Z,73.12
2019-05-07T05:27:56.193Z,73.12
2019-05-07T05:28:56.214Z,73.12
2019-05-07T05:29:56.148Z,73.12
2019-05-07T05:30:56.147Z,73.12
2019-05-07T05:31:56.140Z,73.12
2019-05-07T05:32:56.127Z,73.12
2019-05-07T05:33:56.130Z,73.12
2019-05-07T05:34:56.115Z,73.12
2019-05-07T05:35:56.114Z,78.75
2019-05-07T05:36:56.092Z,78.75
2019-05-07T05:37:56.124Z,73.12
2019-05-07T05:38:56.112Z,73.12
2019-05-07T05:40:05.551Z,78.75
2019-05-07T05:40:57.083Z,78.75
2019-05-07T05:41:56.070Z,78.75
2019-05-07T05:42:56.048Z,78.75
2019-05-07T05:43:56.067Z,78.75
2019-05-07T05:44:56.052Z,84.38
2019-05-07T05:45:56.023Z,90.00
2019-05-07T05:46:56.010Z,84.38
2019-05-07T05:48:04.652Z,84.38
2019-05-07T05:48:57.034Z,84.38
2019-05-07T05:49:55.978Z,84.38
2019-05-07T05:50:55.981Z,84.38
2019-05-07T05:51:55.948Z,90.00
2019-05-07T05:52:55.948Z,90.00
2019-05-07T05:53:55.948Z,95.62
2019-05-07T05:54:55.958Z,95.62
2019-05-07T05:55:55.918Z,90.00
2019-05-07T05:56:55.918Z,95.62
2019-05-07T05:57:55.903Z,101.25
2019-05-07T05:58:55.869Z,112.50
2019-05-07T05:59:55.910Z,106.88
2019-05-07T06:00:55.856Z,101.25
2019-05-07T06:01:55.836Z,90.00
2019-05-07T06:02:55.848Z,73.12
2019-05-07T06:03:55.838Z,73.12
2019-05-07T06:04:55.864Z,73.12
2019-05-07T06:05:55.834Z,73.12
2019-05-07T06:07:07.919Z,67.50
2019-05-07T06:07:56.750Z,78.75
2019-05-07T06:08:55.752Z,90.00
2019-05-07T06:09:55.828Z,90.00
2019-05-07T06:10:55.746Z,101.25
2019-05-07T06:11:55.714Z,101.25
2019-05-07T06:12:55.711Z,101.25
2019-05-07T06:13:55.706Z,101.25
2019-05-07T06:14:55.682Z,101.25
2019-05-07T06:15:55.704Z,101.25
2019-05-07T06:16:55.650Z,101.25
2019-05-07T06:17:55.650Z,101.25
2019-05-07T06:18:55.639Z,101.25
2019-05-07T06:19:55.642Z,101.25
2019-05-07T06:20:55.620Z,106.88
2019-05-07T06:21:55.614Z,106.88
2019-05-07T06:22:55.611Z,106.88
2019-05-07T06:23:55.588Z,106.88
2019-05-07T06:24:56.544Z,106.88
2019-05-07T06:25:55.571Z,112.50
2019-05-07T06:26:55.580Z,112.50
2019-05-07T06:27:55.558Z,112.50
2019-05-07T06:28:55.543Z,112.50
2019-05-07T06:29:55.522Z,112.50
2019-05-07T06:30:55.496Z,118.12
2019-05-07T06:31:55.537Z,118.12
2019-05-07T06:32:55.496Z,123.75
2019-05-07T06:33:55.482Z,123.75
2019-05-07T06:34:55.484Z,123.75
2019-05-07T06:35:55.476Z,129.38
2019-05-07T06:36:55.451Z,129.38
2019-05-07T06:37:55.458Z,129.38
2019-05-07T06:38:55.429Z,135.00
2019-05-07T06:39:55.435Z,123.75
2019-05-07T06:40:55.396Z,135.00
2019-05-07T06:41:55.392Z,140.62
2019-05-07T06:42:55.404Z,140.62
2019-05-07T06:43:55.385Z,140.62
2019-05-07T06:44:55.354Z,146.25
2019-05-07T06:45:55.360Z,151.88
2019-05-07T06:46:55.350Z,157.50
2019-05-07T06:47:55.350Z,163.12
2019-05-07T06:48:55.326Z,168.75
2019-05-07T06:49:55.312Z,1620.00
2019-05-07T06:50:55.309Z,1620.00
2019-05-07T06:51:55.331Z,1625.62
2019-05-07T06:52:55.320Z,1642.50
2019-05-07T06:53:55.260Z,1653.75
2019-05-07T06:54:55.244Z,1665.00
2019-05-07T06:55:55.255Z,1693.12
2019-05-07T06:56:55.242Z,1625.62
2019-05-07T06:57:55.224Z,1766.25
2019-05-07T06:58:55.222Z,3273.75
2019-05-07T06:59:55.204Z,3408.75
2019-05-07T07:00:55.180Z,4950.00
2019-05-07T07:01:55.224Z,3279.38
2019-05-07T07:02:55.162Z,95.62
2019-05-07T07:03:55.208Z,3251.25
2019-05-07T07:04:55.150Z,1631.25
2019-05-07T07:05:55.160Z,90.00
2019-05-07T07:06:55.160Z,1681.88
2019-05-07T07:07:55.116Z,1738.12
2019-05-07T07:08:55.182Z,129.38
2019-05-07T07:09:56.824Z,118.12
2019-05-07T07:10:55.100Z,101.25
2019-05-07T07:11:55.080Z,112.50
2019-05-07T07:12:55.069Z,123.75
2019-05-07T07:13:55.048Z,1755.00
2019-05-07T07:14:57.840Z,3301.88
2019-05-07T07:15:55.018Z,1777.50
2019-05-07T07:16:56.515Z,123.75
2019-05-07T07:17:55.015Z,112.50
2019-05-07T07:18:55.833Z,123.75
2019-05-07T07:19:54.988Z,106.88
2019-05-07T07:20:54.996Z,135.00
2019-05-07T07:21:55.526Z,123.75
2019-05-07T07:22:54.965Z,135.00
2019-05-07T07:23:54.958Z,1681.88
2019-05-07T07:24:54.945Z,168.75
2019-05-07T07:25:54.954Z,135.00
2019-05-07T07:26:54.906Z,135.00
2019-05-07T07:27:54.898Z,146.25
2019-05-07T07:28:54.896Z,3330.00
2019-05-07T07:29:54.876Z,1665.00
2019-05-07T07:30:54.896Z,3380.62
2019-05-07T07:31:54.854Z,3352.50
2019-05-07T07:32:54.854Z,3358.12
2019-05-07T07:33:54.834Z,1749.38
2019-05-07T07:34:54.832Z,1771.88
2019-05-07T07:35:54.844Z,3290.62
2019-05-07T07:37:05.476Z,3352.50
2019-05-07T07:37:55.784Z,3330.00
2019-05-07T07:38:54.785Z,3313.12
2019-05-07T07:39:54.776Z,1783.12
2019-05-07T07:40:54.764Z,1710.00
2019-05-07T07:41:54.766Z,1687.50
2019-05-07T07:42:54.787Z,1625.62
2019-05-07T07:43:54.725Z,118.12
2019-05-07T07:44:54.727Z,118.12
2019-05-07T07:45:54.706Z,123.75
2019-05-07T07:46:54.730Z,3285.00
2019-05-07T07:47:54.703Z,168.75
2019-05-07T07:49:06.817Z,1648.12
2019-05-07T07:49:55.684Z,1636.88
2019-05-07T07:50:54.654Z,1721.25
2019-05-07T07:51:54.660Z,3285.00
2019-05-07T07:52:54.642Z,1738.12
2019-05-07T07:53:54.634Z,151.88
2019-05-07T07:54:54.626Z,1715.62
2019-05-07T07:55:54.598Z,3285.00
2019-05-07T07:56:56.496Z,1659.38
2019-05-07T07:57:54.595Z,1676.25
2019-05-07T07:58:54.575Z,3285.00
2019-05-07T07:59:54.561Z,1665.00
2019-05-07T08:00:54.544Z,3324.38
2019-05-07T08:01:54.543Z,3318.75
2019-05-07T08:02:54.540Z,3313.12
2019-05-07T08:03:54.523Z,3330.00
2019-05-07T08:04:54.512Z,1636.88
2019-05-07T08:05:54.498Z,1738.12
2019-05-07T08:06:54.489Z,106.88
2019-05-07T08:07:54.485Z,112.50
2019-05-07T08:08:54.459Z,118.12
2019-05-07T08:09:54.440Z,168.75
2019-05-07T08:10:54.421Z,3279.38
2019-05-07T08:11:54.422Z,1681.88
2019-05-07T08:12:54.471Z,1648.12
2019-05-07T08:13:54.438Z,112.50
2019-05-07T08:14:54.409Z,106.88
2019-05-07T08:15:54.385Z,112.50
2019-05-07T08:16:54.373Z,135.00
2019-05-07T08:17:54.367Z,157.50
2019-05-07T08:18:54.365Z,1620.00
2019-05-07T08:19:54.343Z,146.25
2019-05-07T08:20:54.327Z,151.88
2019-05-07T08:21:54.307Z,1636.88
2019-05-07T08:22:54.299Z,168.75
2019-05-07T08:23:54.309Z,1642.50
2019-05-07T08:24:54.292Z,1642.50
2019-05-07T08:25:54.279Z,1642.50
2019-05-07T08:26:54.257Z,1642.50
2019-05-07T08:27:54.259Z,1631.25
2019-05-07T08:28:54.243Z,157.50
2019-05-07T08:29:54.251Z,140.62
2019-05-07T08:30:54.217Z,157.50
2019-05-07T08:31:54.233Z,157.50
2019-05-07T08:32:54.192Z,157.50
2019-05-07T08:33:54.197Z,157.50
2019-05-07T08:34:54.197Z,163.12
2019-05-07T08:35:54.159Z,163.12
2019-05-07T08:36:54.157Z,168.75
2019-05-07T08:37:54.139Z,1620.00
2019-05-07T08:38:54.133Z,1625.62
2019-05-07T08:39:54.154Z,1631.25
2019-05-07T08:40:54.115Z,1648.12
2019-05-07T08:41:54.105Z,1687.50
2019-05-07T08:42:54.098Z,1726.88
2019-05-07T08:44:07.307Z,1715.62
2019-05-07T08:44:55.104Z,1704.38
2019-05-07T08:45:54.075Z,1693.12
2019-05-07T08:46:54.045Z,1715.62
2019-05-07T08:47:54.026Z,1715.62
2019-05-07T08:48:54.014Z,1704.38
2019-05-07T08:49:54.017Z,1760.62
2019-05-07T08:50:54.022Z,1783.12
2019-05-07T08:51:53.986Z,3285.00
2019-05-07T08:52:53.984Z,3341.25
2019-05-07T08:53:53.964Z,4882.50
2019-05-07T08:54:53.964Z,25914.38
2019-05-07T08:55:53.987Z,43194.38
2019-05-07T08:56:53.938Z,25914.38
2019-05-07T08:57:53.931Z,27354.38
2019-05-07T08:58:53.912Z,27354.38
2019-05-07T09:00:00.449Z,28794.38
2019-05-07T09:00:54.926Z,27354.38
2019-05-07T09:01:53.886Z,21594.38
2019-05-07T09:02:53.884Z,21594.38
2019-05-07T09:03:53.874Z,18714.38
2019-05-07T09:04:53.854Z,15834.38
2019-05-07T09:05:53.864Z,12954.38
2019-05-07T09:06:53.878Z,11401.88
2019-05-07T09:07:53.834Z,9787.50
2019-05-07T09:08:53.818Z,8184.38
2019-05-07T09:09:53.795Z,6626.25
2019-05-07T09:10:53.784Z,5006.25
2019-05-07T09:11:53.850Z,6513.75
2019-05-07T09:12:53.783Z,6558.75
2019-05-07T09:13:53.760Z,3245.62
2019-05-07T09:14:53.766Z,1760.62
2019-05-07T09:15:53.792Z,1738.12
2019-05-07T09:16:53.778Z,1726.88
2019-05-07T09:17:53.712Z,1715.62
2019-05-07T09:18:53.723Z,1693.12
2019-05-07T09:19:54.933Z,157.50
2019-05-07T09:20:53.678Z,157.50
2019-05-07T09:21:53.675Z,174.38
2019-05-07T09:22:53.696Z,1659.38
2019-05-07T09:23:53.646Z,1653.75
2019-05-07T09:24:53.661Z,1653.75
2019-05-07T09:25:53.632Z,1659.38
2019-05-07T09:26:53.631Z,1665.00
2019-05-07T09:27:53.623Z,1681.88
2019-05-07T09:28:53.606Z,1687.50
2019-05-07T09:29:53.676Z,3358.12
2019-05-07T09:30:53.597Z,3414.38
2019-05-07T09:31:53.563Z,3318.75
2019-05-07T09:32:53.612Z,3408.75
2019-05-07T09:33:53.551Z,4888.12
2019-05-07T09:34:53.545Z,4927.50
2019-05-07T09:35:53.524Z,3273.75
2019-05-07T09:36:53.505Z,1760.62
2019-05-07T09:37:53.521Z,3256.88
2019-05-07T09:38:59.168Z,1755.00
2019-05-07T09:39:54.484Z,3346.88
2019-05-07T09:40:55.279Z,3251.25
2019-05-07T09:41:53.463Z,4871.25
2019-05-07T09:42:53.469Z,4916.25
2019-05-07T09:43:53.442Z,1631.25
2019-05-07T09:44:53.429Z,1620.00
2019-05-07T09:45:53.421Z,4888.12
2019-05-07T09:46:53.403Z,4865.62
2019-05-07T09:47:53.476Z,4865.62
2019-05-07T09:48:53.384Z,4860.00
2019-05-07T09:50:04.280Z,3414.38
2019-05-07T09:50:54.354Z,3408.75
2019-05-07T09:52:02.634Z,3403.12
2019-05-07T09:52:53.379Z,3403.12
2019-05-07T09:53:53.333Z,4860.00
2019-05-07T09:54:53.332Z,4882.50
2019-05-07T09:55:53.322Z,4933.12
2019-05-07T09:56:53.323Z,1721.25
2019-05-07T09:57:53.293Z,1687.50
2019-05-07T09:58:53.315Z,4910.62
2019-05-07T09:59:53.342Z,4916.25
2019-05-07T10:00:53.251Z,3245.62
2019-05-07T10:01:53.261Z,1653.75
2019-05-07T10:02:53.248Z,1659.38
2019-05-07T10:03:53.259Z,4927.50
2019-05-07T10:04:53.239Z,4933.12
2019-05-07T10:05:53.245Z,1698.75
2019-05-07T10:06:53.237Z,4860.00
2019-05-07T10:07:53.215Z,4882.50
2019-05-07T10:08:53.183Z,4871.25
2019-05-07T10:09:53.231Z,4888.12
2019-05-07T10:10:53.337Z,4888.12
2019-05-07T10:11:53.189Z,4888.12
2019-05-07T10:12:53.178Z,4910.62
2019-05-07T10:13:53.155Z,4899.38
2019-05-07T10:14:53.227Z,3318.75
2019-05-07T10:15:53.112Z,1760.62
2019-05-07T10:16:53.107Z,3391.88
2019-05-07T10:17:53.102Z,3240.00
2019-05-07T10:18:53.079Z,1642.50
2019-05-07T10:19:53.132Z,1631.25
2019-05-07T10:20:53.062Z,1631.25
2019-05-07T10:21:53.102Z,1625.62
2019-05-07T10:22:53.051Z,1625.62
2019-05-07T10:23:53.029Z,1625.62
2019-05-07T10:24:53.031Z,1625.62
2019-05-07T10:25:53.014Z,1631.25
2019-05-07T10:26:53.223Z,1653.75
2019-05-07T10:27:53.339Z,3403.12
2019-05-07T10:28:52.981Z,4905.00
2019-05-07T10:29:53.093Z,4910.62
2019-05-07T10:30:53.012Z,4905.00
2019-05-07T10:31:52.951Z,4899.38
2019-05-07T10:32:52.942Z,3375.00
2019-05-07T10:33:52.942Z,1665.00
2019-05-07T10:34:52.902Z,1636.88
2019-05-07T10:35:53.131Z,1659.38
2019-05-07T10:36:52.884Z,1698.75
2019-05-07T10:37:53.060Z,1704.38
2019-05-07T10:38:52.862Z,3313.12
2019-05-07T10:39:52.869Z,4882.50
2019-05-07T10:40:52.840Z,4882.50
2019-05-07T10:41:52.868Z,4888.12
2019-05-07T10:42:52.838Z,4899.38
2019-05-07T10:43:52.804Z,4893.75
2019-05-07T10:44:52.821Z,4910.62
2019-05-07T10:45:52.780Z,4910.62
2019-05-07T10:46:52.813Z,4899.38
2019-05-07T10:47:52.774Z,4888.12
2019-05-07T10:48:52.741Z,4899.38
2019-05-07T10:49:52.742Z,4893.75
2019-05-07T10:50:52.745Z,4893.75
2019-05-07T10:51:52.714Z,4888.12
2019-05-07T10:52:52.965Z,4888.12
2019-05-07T10:53:52.705Z,4893.75
2019-05-07T10:54:59.750Z,4905.00
2019-05-07T10:55:53.676Z,4927.50
2019-05-07T10:56:52.684Z,4944.38
2019-05-07T10:57:52.996Z,4955.62
2019-05-07T10:58:52.682Z,1732.50
2019-05-07T10:59:52.701Z,1676.25
2019-05-07T11:00:52.612Z,1676.25
2019-05-07T11:01:52.604Z,1670.62
2019-05-07T11:02:52.744Z,1721.25
2019-05-07T11:03:52.670Z,3245.62
2019-05-07T11:04:53.194Z,3273.75
2019-05-07T11:05:52.633Z,1698.75
2019-05-07T11:06:52.620Z,1698.75
2019-05-07T11:07:53.909Z,1693.12
2019-05-07T11:08:52.584Z,1693.12
2019-05-07T11:09:52.632Z,1704.38
2019-05-07T11:10:52.562Z,1693.12
2019-05-07T11:11:52.544Z,1676.25
2019-05-07T11:12:52.551Z,1659.38
2019-05-07T11:13:55.826Z,1642.50
2019-05-07T11:14:52.494Z,1631.25
2019-05-07T11:15:52.505Z,1620.00
2019-05-07T11:16:52.492Z,168.75
2019-05-07T11:17:52.484Z,157.50
2019-05-07T11:18:52.454Z,151.88
2019-05-07T11:19:52.464Z,146.25
2019-05-07T11:20:53.461Z,146.25
2019-05-07T11:21:52.444Z,140.62
2019-05-07T11:22:52.561Z,140.62
2019-05-07T11:23:52.434Z,140.62
2019-05-07T11:24:52.392Z,140.62
2019-05-07T11:25:52.771Z,146.25
2019-05-07T11:26:53.115Z,151.88
2019-05-07T11:27:52.550Z,151.88
2019-05-07T11:28:52.332Z,163.12
2019-05-07T11:29:52.323Z,174.38
2019-05-07T11:30:52.330Z,1631.25
2019-05-07T11:31:52.570Z,1648.12
2019-05-07T11:32:52.468Z,1670.62
2019-05-07T11:33:52.270Z,1687.50
2019-05-07T11:34:52.873Z,1704.38
2019-05-07T11:35:52.893Z,1749.38
2019-05-07T11:36:52.476Z,4888.12
2019-05-07T11:37:52.300Z,3391.88
2019-05-07T11:38:52.689Z,1743.75
2019-05-07T11:39:52.393Z,3251.25
2019-05-07T11:40:52.247Z,1788.75
2019-05-07T11:41:52.177Z,1738.12
2019-05-07T11:42:52.279Z,1771.88
2019-05-07T11:43:54.009Z,1732.50
2019-05-07T11:44:54.799Z,4905.00
2019-05-07T11:45:54.162Z,3245.62
2019-05-07T11:46:52.625Z,1738.12
2019-05-07T11:47:52.137Z,3369.38
2019-05-07T11:48:52.132Z,4916.25
2019-05-07T11:49:52.483Z,1738.12
2019-05-07T11:51:01.447Z,1738.12
2019-05-07T11:51:53.099Z,5034.38
2019-05-07T11:52:52.129Z,4865.62
2019-05-07T11:53:52.426Z,1794.38
2019-05-07T11:54:52.497Z,1777.50
2019-05-07T11:55:52.434Z,5000.62
2019-05-07T11:56:55.251Z,3375.00
2019-05-07T11:57:52.036Z,3313.12
2019-05-07T11:58:54.748Z,3391.88
2019-05-07T11:59:54.372Z,1760.62
2019-05-07T12:00:51.999Z,4905.00
2019-05-07T12:01:52.730Z,4910.62
2019-05-07T12:02:52.053Z,1771.88
2019-05-07T12:03:52.073Z,1732.50
2019-05-07T12:04:52.680Z,1783.12
2019-05-07T12:05:52.684Z,1738.12
2019-05-07T12:06:52.152Z,4893.75
2019-05-07T12:07:51.906Z,1715.62
2019-05-07T12:08:52.262Z,1766.25
2019-05-07T12:09:52.607Z,1732.50
2019-05-07T12:10:51.927Z,1743.75
2019-05-07T12:11:52.132Z,1704.38
2019-05-07T12:12:52.170Z,4871.25
2019-05-07T12:13:52.357Z,1715.62
2019-05-07T12:14:51.974Z,1698.75
2019-05-07T12:15:52.338Z,1721.25
2019-05-07T12:16:51.807Z,3268.12
2019-05-07T12:17:52.234Z,3330.00
2019-05-07T12:18:52.434Z,4944.38
2019-05-07T12:19:52.673Z,3414.38
2019-05-07T12:20:53.831Z,1766.25
2019-05-07T12:21:52.666Z,1625.62
2019-05-07T12:22:52.173Z,1642.50
2019-05-07T12:23:52.497Z,1642.50
2019-05-07T12:24:52.143Z,3358.12
2019-05-07T12:25:52.872Z,1743.75
2019-05-07T12:26:52.218Z,4899.38
2019-05-07T12:27:51.695Z,4899.38
2019-05-07T12:28:52.212Z,4888.12
2019-05-07T12:29:52.873Z,4882.50
2019-05-07T12:30:51.829Z,4865.62
2019-05-07T12:31:52.362Z,3403.12
2019-05-07T12:32:52.021Z,1726.88
2019-05-07T12:33:52.175Z,1676.25
2019-05-07T12:34:52.775Z,168.75
2019-05-07T12:35:52.465Z,3296.25
2019-05-07T12:36:52.453Z,4871.25
2019-05-07T12:37:51.597Z,4882.50
2019-05-07T12:38:53.298Z,3352.50